createdAt,value
2016-07-31T00:00:34.843Z,89.84
2016-07-31T00:01:34.864Z,89.36
2016-07-31T00:02:34.894Z,90.03
2016-07-31T00:03:34.917Z,90.47
2016-07-31T00:04:34.944Z,90.37
2016-07-31T00:05:34.974Z,90.18
2016-07-31T00:06:34.997Z,90.85
2016-07-31T00:07:35.024Z,91.05
2016-07-31T00:08:35.052Z,91.05
2016-07-31T00:11:35.130Z,91.62
2016-07-31T00:12:35.164Z,92.1
2016-07-31T00:13:35.189Z,92
2016-07-31T00:14:35.215Z,92.19
2016-07-31T00:15:35.243Z,92.29
2016-07-31T00:16:35.270Z,92.1
2016-07-31T00:17:35.293Z,91.05
2016-07-31T00:18:35.319Z,91.05
2016-07-31T00:19:35.348Z,91.05
2016-07-31T00:20:35.374Z,90.85
2016-07-31T00:21:35.404Z,90.75
2016-07-31T00:22:35.425Z,90.28
2016-07-31T00:23:35.457Z,90.85
2016-07-31T00:24:35.481Z,91.33
2016-07-31T00:25:50.430Z,91.62
2016-07-31T00:26:35.582Z,92.48
2016-07-31T00:27:35.558Z,92.19
2016-07-31T00:28:35.588Z,92.29
2016-07-31T00:29:35.609Z,92.24
2016-07-31T00:30:35.638Z,92.63
2016-07-31T00:31:35.667Z,92.63
2016-07-31T00:32:35.693Z,92.58
2016-07-31T00:33:35.723Z,92.72
2016-07-31T00:34:35.747Z,92.68
2016-07-31T00:35:35.769Z,92.96
2016-07-31T00:36:35.798Z,92.39
2016-07-31T00:37:35.825Z,92.86
2016-07-31T00:38:35.852Z,92.77
2016-07-31T00:39:35.877Z,92.68
2016-07-31T00:40:35.903Z,92.68
2016-07-31T00:41:50.856Z,93.06
2016-07-31T00:42:35.963Z,92.86
2016-07-31T00:43:35.988Z,92.77
2016-07-31T00:44:36.015Z,92.86
2016-07-31T00:45:36.042Z,92.77
2016-07-31T00:46:36.067Z,92.29
2016-07-31T00:47:36.094Z,92.19
2016-07-31T00:48:36.117Z,92.19
2016-07-31T00:49:36.149Z,92.1
2016-07-31T00:50:36.175Z,91.14
2016-07-31T00:51:36.203Z,91.14
2016-07-31T00:52:36.328Z,90.66
2016-07-31T00:53:36.253Z,90.18
2016-07-31T00:54:36.276Z,90.95
2016-07-31T00:55:36.304Z,90.66
2016-07-31T00:56:36.337Z,90.75
2016-07-31T00:57:51.282Z,91.05
2016-07-31T00:58:36.385Z,91.33
2016-07-31T00:59:36.414Z,90.75
2016-07-31T01:00:36.439Z,90.66
2016-07-31T01:01:36.465Z,91.14
2016-07-31T01:02:36.486Z,91.91
2016-07-31T01:03:36.529Z,92.1
2016-07-31T01:04:36.555Z,92.29
2016-07-31T01:05:36.567Z,93.15
2016-07-31T01:06:36.598Z,93.06
2016-07-31T01:07:36.621Z,92.48
2016-07-31T01:08:36.647Z,92.68
2016-07-31T01:09:36.672Z,92.58
2016-07-31T01:10:36.707Z,91.62
2016-07-31T01:12:36.754Z,91.14
2016-07-31T01:13:51.706Z,90.95
2016-07-31T01:14:36.810Z,91.14
2016-07-31T01:15:36.836Z,90.95
2016-07-31T01:16:36.863Z,91.14
2016-07-31T01:17:36.886Z,90.75
2016-07-31T01:18:36.919Z,90.85
2016-07-31T01:19:36.945Z,91.81
2016-07-31T01:20:36.969Z,92.1
2016-07-31T01:21:36.995Z,92.68
2016-07-31T01:22:37.019Z,93.15
2016-07-31T01:23:37.049Z,93.78
2016-07-31T01:24:37.075Z,93.97
2016-07-31T01:25:37.100Z,93.78
2016-07-31T01:26:37.123Z,94.07
2016-07-31T01:27:37.155Z,93.97
2016-07-31T01:28:52.103Z,93.68
2016-07-31T01:29:37.208Z,93.88
2016-07-31T01:30:37.236Z,92.82
2016-07-31T01:31:37.265Z,92.63
2016-07-31T01:32:37.286Z,93.59
2016-07-31T01:33:37.312Z,93.3
2016-07-31T01:34:37.338Z,93.97
2016-07-31T01:35:37.367Z,94.35
2016-07-31T01:36:37.405Z,93.88
2016-07-31T01:37:37.416Z,93.88
2016-07-31T01:38:37.449Z,94.45
2016-07-31T01:39:37.475Z,94.07
2016-07-31T01:40:37.498Z,94.07
2016-07-31T01:41:37.527Z,94.64
2016-07-31T01:42:37.549Z,94.45
2016-07-31T01:43:37.580Z,94.26
2016-07-31T01:45:37.629Z,94.64
2016-07-31T01:46:37.654Z,94.07
2016-07-31T01:47:37.680Z,94.45
2016-07-31T01:48:37.708Z,94.26
2016-07-31T01:49:37.735Z,94.35
2016-07-31T01:50:37.758Z,94.26
2016-07-31T01:51:37.788Z,95.12
2016-07-31T01:52:37.810Z,95.26
2016-07-31T01:53:37.843Z,95.07
2016-07-31T01:54:37.866Z,95.56
2016-07-31T01:55:37.893Z,95.26
2016-07-31T01:56:37.921Z,95.46
2016-07-31T01:57:37.942Z,95.94
2016-07-31T01:58:37.968Z,96.32
2016-07-31T01:59:38.691Z,96.22
2016-07-31T02:00:52.947Z,96.22
2016-07-31T02:01:38.052Z,96.22
2016-07-31T02:02:38.080Z,96.37
2016-07-31T02:03:38.105Z,96.51
2016-07-31T02:04:38.144Z,96.8
2016-07-31T02:05:38.153Z,96.47
2016-07-31T02:06:38.185Z,95.84
2016-07-31T02:07:38.205Z,95.26
2016-07-31T02:08:38.237Z,95.46
2016-07-31T02:09:38.268Z,95.26
2016-07-31T02:10:38.289Z,95.56
2016-07-31T02:11:38.309Z,96.03
2016-07-31T02:12:38.339Z,95.94
2016-07-31T02:13:38.364Z,96.08
2016-07-31T02:14:38.386Z,95.46
2016-07-31T02:15:38.414Z,96.42
2016-07-31T02:16:53.369Z,96.47
2016-07-31T02:17:38.481Z,96.66
2016-07-31T02:19:38.519Z,96.75
2016-07-31T02:20:38.548Z,96.75
2016-07-31T02:21:38.581Z,96.47
2016-07-31T02:22:38.600Z,96.56
2016-07-31T02:23:38.626Z,96.47
2016-07-31T02:24:38.654Z,97.14
2016-07-31T02:25:38.677Z,96.75
2016-07-31T02:26:38.706Z,96.66
2016-07-31T02:27:38.730Z,96.66
2016-07-31T02:28:38.755Z,96.56
2016-07-31T02:29:38.781Z,96.13
2016-07-31T02:30:38.809Z,96.08
2016-07-31T02:31:38.836Z,96.18
2016-07-31T02:32:53.785Z,96.56
2016-07-31T02:33:38.888Z,97.14
2016-07-31T02:34:38.917Z,96.75
2016-07-31T02:35:38.945Z,96.84
2016-07-31T02:36:38.972Z,96.75
2016-07-31T02:37:38.989Z,97.14
2016-07-31T02:38:39.017Z,97.33
2016-07-31T02:39:39.043Z,96.94
2016-07-31T02:40:39.071Z,97.14
2016-07-31T02:41:39.094Z,97.42
2016-07-31T02:42:39.121Z,97.04
2016-07-31T02:43:39.146Z,96.56
2016-07-31T02:44:39.178Z,96.84
2016-07-31T02:45:39.204Z,97.33
2016-07-31T02:46:39.226Z,97.23
2016-07-31T02:47:39.257Z,97.61
2016-07-31T02:48:54.205Z,97.8
2016-07-31T02:49:39.307Z,97.8
2016-07-31T02:50:39.335Z,97.9
2016-07-31T02:51:39.360Z,97.14
2016-07-31T02:52:39.391Z,97.14
2016-07-31T02:53:39.408Z,97.04
2016-07-31T02:54:39.441Z,97.42
2016-07-31T02:55:39.518Z,97.71
2016-07-31T02:56:39.502Z,97.71
2016-07-31T02:57:39.519Z,97.42
2016-07-31T02:58:39.537Z,97.9
2016-07-31T02:59:39.567Z,98.1
2016-07-31T03:00:39.596Z,98.19
2016-07-31T03:01:39.615Z,97.71
2016-07-31T03:02:39.643Z,98.19
2016-07-31T03:03:54.596Z,98.19
2016-07-31T03:04:39.694Z,98.38
2016-07-31T03:05:39.725Z,97.9
2016-07-31T03:06:39.750Z,97.8
2016-07-31T03:07:39.779Z,97.9
2016-07-31T03:08:39.804Z,98
2016-07-31T03:09:39.832Z,97.52
2016-07-31T03:10:39.852Z,97.71
2016-07-31T03:11:39.879Z,97.42
2016-07-31T03:12:39.910Z,97.52
2016-07-31T03:13:39.935Z,97.61
2016-07-31T03:14:39.956Z,98.1
2016-07-31T03:16:40.015Z,98.19
2016-07-31T03:17:40.037Z,97.71
2016-07-31T03:18:40.059Z,97.71
2016-07-31T03:19:40.090Z,98
2016-07-31T03:21:40.143Z,97.8
2016-07-31T03:22:40.164Z,97.8
2016-07-31T03:23:40.188Z,97.8
2016-07-31T03:24:40.215Z,97.8
2016-07-31T03:25:40.243Z,97.71
2016-07-31T03:26:40.270Z,97.28
2016-07-31T03:27:40.299Z,98.33
2016-07-31T03:28:40.320Z,97.18
2016-07-31T03:29:40.344Z,97.85
2016-07-31T03:30:40.371Z,97.09
2016-07-31T03:31:40.398Z,97.18
2016-07-31T03:32:40.424Z,97.18
2016-07-31T03:33:40.455Z,98.14
2016-07-31T03:34:40.477Z,97.18
2016-07-31T03:35:55.427Z,97.76
2016-07-31T03:37:40.557Z,97.28
2016-07-31T03:38:40.579Z,97.85
2016-07-31T03:39:40.615Z,97.76
2016-07-31T03:40:40.632Z,97.09
2016-07-31T03:41:40.659Z,97.09
2016-07-31T03:42:40.681Z,97.09
2016-07-31T03:43:41.537Z,97.28
2016-07-31T03:44:40.737Z,97.09
2016-07-31T03:45:40.759Z,97.38
2016-07-31T03:46:40.791Z,97.95
2016-07-31T03:47:40.814Z,97.28
2016-07-31T03:48:40.841Z,97.85
2016-07-31T03:49:40.872Z,97.66
2016-07-31T03:50:40.895Z,96.89
2016-07-31T03:51:55.842Z,96.8
2016-07-31T03:52:40.951Z,96.61
2016-07-31T03:53:40.970Z,96.8
2016-07-31T03:54:40.996Z,96.8
2016-07-31T03:55:41.025Z,96.89
2016-07-31T03:56:41.098Z,97.09
2016-07-31T03:57:41.073Z,97.18
2016-07-31T03:58:41.110Z,97.18
2016-07-31T03:59:41.131Z,97.38
2016-07-31T04:01:41.183Z,97.42
2016-07-31T04:02:41.203Z,97.23
2016-07-31T04:03:41.233Z,97.04
2016-07-31T04:04:41.261Z,96.94
2016-07-31T04:05:41.288Z,96.75
2016-07-31T04:06:41.315Z,95.98
2016-07-31T04:07:56.261Z,96.27
2016-07-31T04:08:41.365Z,96.27
2016-07-31T04:09:41.389Z,95.89
2016-07-31T04:10:41.424Z,95.41
2016-07-31T04:11:41.439Z,95.51
2016-07-31T04:12:41.472Z,95.41
2016-07-31T04:14:41.536Z,94.35
2016-07-31T04:15:41.551Z,93.82
2016-07-31T04:16:41.577Z,94.02
2016-07-31T04:17:41.601Z,93.44
2016-07-31T04:18:41.628Z,93.44
2016-07-31T04:19:41.651Z,93.35
2016-07-31T04:20:41.676Z,93.25
2016-07-31T04:22:41.729Z,92.86
2016-07-31T04:23:56.680Z,92.48
2016-07-31T04:25:41.807Z,92.63
2016-07-31T04:26:41.835Z,91.86
2016-07-31T04:27:41.862Z,91.96
2016-07-31T04:28:41.890Z,92.33
2016-07-31T04:29:41.913Z,93.01
2016-07-31T04:30:41.939Z,93.3
2016-07-31T04:31:41.971Z,93.87
2016-07-31T04:32:41.997Z,92.82
2016-07-31T04:33:42.016Z,92.72
2016-07-31T04:34:42.044Z,92.33
2016-07-31T04:35:42.071Z,92.53
2016-07-31T04:36:42.095Z,92.05
2016-07-31T04:37:42.124Z,92.91
2016-07-31T04:38:57.076Z,92.53
2016-07-31T04:40:42.209Z,93.2
2016-07-31T04:41:42.236Z,93.2
2016-07-31T04:42:42.261Z,93.01
2016-07-31T04:43:42.287Z,92.91
2016-07-31T04:44:42.318Z,92.24
2016-07-31T04:45:43.034Z,91.33
2016-07-31T04:46:42.364Z,91.04
2016-07-31T04:47:42.404Z,91.13
2016-07-31T04:48:42.417Z,91.13
2016-07-31T04:49:42.449Z,90.08
2016-07-31T04:50:42.473Z,90.75
2016-07-31T04:51:42.495Z,90.46
2016-07-31T04:52:42.519Z,89.31
2016-07-31T04:53:42.547Z,89.07
2016-07-31T04:54:42.574Z,88.01
2016-07-31T04:55:42.605Z,88.59
2016-07-31T04:56:42.629Z,86.52
2016-07-31T04:57:42.662Z,84.63
2016-07-31T04:58:42.681Z,81.98
2016-07-31T04:59:42.707Z,78.88
2016-07-31T05:00:42.785Z,76.03
2016-07-31T05:01:42.762Z,74.08
2016-07-31T05:02:42.793Z,72.19
2016-07-31T05:03:42.820Z,70.58
2016-07-31T05:04:42.846Z,69.9
2016-07-31T05:05:42.883Z,68.01
2016-07-31T05:06:42.907Z,66.24
2016-07-31T05:07:42.939Z,64.72
2016-07-31T05:08:42.969Z,63.66
2016-07-31T05:09:42.998Z,63.85
2016-07-31T05:10:57.954Z,65.17
2016-07-31T05:11:43.056Z,66.85
2016-07-31T05:12:43.090Z,68.84
2016-07-31T05:13:43.168Z,69.62
2016-07-31T05:14:43.147Z,70
2016-07-31T05:15:43.181Z,71.03
2016-07-31T05:16:43.212Z,71.61
2016-07-31T05:17:43.252Z,72.25
2016-07-31T05:18:43.267Z,72.15
2016-07-31T05:19:43.300Z,71.19
2016-07-31T05:20:43.328Z,71.22
2016-07-31T05:21:43.353Z,70.84
2016-07-31T05:22:43.389Z,71.42
2016-07-31T05:23:43.421Z,71.48
2016-07-31T05:24:43.444Z,71.67
2016-07-31T05:25:43.472Z,71.77
2016-07-31T05:26:58.429Z,70.06
2016-07-31T05:28:43.564Z,67.72
2016-07-31T05:29:43.600Z,67.72
2016-07-31T05:30:43.624Z,67.72
2016-07-31T05:31:43.656Z,66.66
2016-07-31T05:32:43.682Z,65.3
2016-07-31T05:33:43.715Z,64.79
2016-07-31T05:34:43.747Z,63.92
2016-07-31T05:35:43.776Z,62.5
2016-07-31T05:36:43.811Z,59.75
2016-07-31T05:37:43.841Z,59.97
2016-07-31T05:38:43.871Z,58.62
2016-07-31T05:39:43.907Z,56.15
2016-07-31T05:40:43.937Z,54.75
2016-07-31T05:41:43.969Z,54.49
2016-07-31T05:42:58.928Z,54.29
2016-07-31T05:43:44.039Z,54.1
2016-07-31T05:44:44.068Z,52.67
2016-07-31T05:45:44.099Z,52.21
2016-07-31T05:46:44.134Z,50.21
2016-07-31T05:47:44.164Z,50.65
2016-07-31T05:48:44.204Z,47.25
2016-07-31T05:49:44.235Z,48.32
2016-07-31T05:50:44.266Z,49.07
2016-07-31T05:51:44.301Z,49.9
2016-07-31T05:52:44.333Z,50.95
2016-07-31T05:53:44.370Z,50.46
2016-07-31T05:55:44.434Z,48.46
2016-07-31T05:57:44.504Z,50.46
2016-07-31T05:58:59.460Z,49.71
2016-07-31T05:59:44.564Z,48.07
2016-07-31T06:00:44.605Z,48
2016-07-31T06:01:44.636Z,48.1
2016-07-31T06:02:44.669Z,49.32
2016-07-31T06:03:44.700Z,49.02
2016-07-31T06:04:44.739Z,49.41
2016-07-31T06:05:44.768Z,49.58
2016-07-31T06:06:44.803Z,49.56
2016-07-31T06:07:44.840Z,49.1
2016-07-31T06:08:44.872Z,47.9
2016-07-31T06:09:44.906Z,46.39
2016-07-31T06:10:45.640Z,44.12
2016-07-31T06:11:44.972Z,43.75
2016-07-31T06:12:45.010Z,45.65
2016-07-31T06:13:59.968Z,49.17
2016-07-31T06:15:45.112Z,53.2
2016-07-31T06:16:45.196Z,53.83
2016-07-31T06:17:45.174Z,55.08
2016-07-31T06:18:45.214Z,55.5
2016-07-31T06:19:45.244Z,55.99
2016-07-31T06:20:45.274Z,53.69
2016-07-31T06:21:45.315Z,51.21
2016-07-31T06:22:45.343Z,51.53
2016-07-31T06:24:45.407Z,50.36
2016-07-31T06:25:45.441Z,50.46
2016-07-31T06:26:45.472Z,51.89
2016-07-31T06:27:45.510Z,53.3
2016-07-31T06:28:45.541Z,54.07
2016-07-31T06:29:45.576Z,54.34
2016-07-31T06:30:46.308Z,55.41
2016-07-31T06:31:45.636Z,56.45
2016-07-31T06:32:45.672Z,56.93
2016-07-31T06:33:45.711Z,55.96
2016-07-31T06:34:45.737Z,57.22
2016-07-31T06:35:45.771Z,54.99
2016-07-31T06:37:45.833Z,55.11
2016-07-31T06:38:45.867Z,53.97
2016-07-31T06:39:45.900Z,53.88
2016-07-31T06:40:45.928Z,53.39
2016-07-31T06:41:45.971Z,53.59
2016-07-31T06:42:45.997Z,54.24
2016-07-31T06:43:46.025Z,54.8
2016-07-31T06:46:01.015Z,56.23
2016-07-31T06:46:46.131Z,56.45
2016-07-31T06:48:46.184Z,55.57
2016-07-31T06:49:46.217Z,56.18
2016-07-31T06:50:46.247Z,53.97
2016-07-31T06:51:46.282Z,54.75
2016-07-31T06:52:46.318Z,55.31
2016-07-31T06:53:46.343Z,54.9
2016-07-31T06:54:46.377Z,54.63
2016-07-31T06:55:46.416Z,52.62
2016-07-31T06:56:46.444Z,52.19
2016-07-31T06:57:46.473Z,51.5
2016-07-31T06:58:46.514Z,51.31
2016-07-31T06:59:46.540Z,50.75
2016-07-31T07:00:46.570Z,47.59
2016-07-31T07:02:01.531Z,46.95
2016-07-31T07:02:46.639Z,46.69
2016-07-31T07:03:46.667Z,46
2016-07-31T07:04:46.706Z,46.22
2016-07-31T07:05:46.734Z,47.29
2016-07-31T07:06:46.818Z,45.83
2016-07-31T07:07:46.852Z,45.42
2016-07-31T07:08:46.835Z,47.34
2016-07-31T07:09:46.868Z,47.71
2016-07-31T07:10:46.901Z,47.53
2016-07-31T07:11:46.931Z,44.83
2016-07-31T07:12:46.981Z,46.8
2016-07-31T07:13:47.002Z,46.49
2016-07-31T07:14:47.135Z,45.34
2016-07-31T07:15:47.069Z,47.44
2016-07-31T07:16:47.105Z,45.78
2016-07-31T07:18:02.060Z,44.07
2016-07-31T07:18:47.180Z,42.85
2016-07-31T07:19:47.201Z,41.91
2016-07-31T07:20:47.236Z,41.93
2016-07-31T07:21:47.272Z,40.66
2016-07-31T07:22:47.306Z,39.82
2016-07-31T07:23:47.337Z,41.49
2016-07-31T07:24:47.376Z,38.86
2016-07-31T07:25:47.405Z,39.56
2016-07-31T07:26:47.440Z,39.92
2016-07-31T07:27:47.473Z,40.48
2016-07-31T07:28:47.513Z,41.44
2016-07-31T07:29:47.545Z,42.87
2016-07-31T07:31:47.617Z,41.99
2016-07-31T07:32:47.647Z,41.42
2016-07-31T07:34:02.608Z,41.41
2016-07-31T07:34:47.718Z,41.62
2016-07-31T07:35:47.752Z,40.25
2016-07-31T07:37:47.825Z,39.8
2016-07-31T07:38:47.856Z,39.33
2016-07-31T07:39:47.890Z,37.49
2016-07-31T07:40:47.926Z,36.45
2016-07-31T07:41:47.965Z,37.82
2016-07-31T07:42:47.996Z,36.76
2016-07-31T07:43:48.032Z,36.09
2016-07-31T07:44:48.065Z,37.17
2016-07-31T07:45:48.102Z,35.7
2016-07-31T07:46:48.140Z,34.42
2016-07-31T07:47:48.174Z,34.54
2016-07-31T07:49:03.138Z,35.42
2016-07-31T07:49:48.243Z,36.08
2016-07-31T07:50:48.282Z,34.8
2016-07-31T07:51:48.314Z,35.39
2016-07-31T07:52:48.354Z,36.96
2016-07-31T07:53:48.390Z,37.81
2016-07-31T07:54:48.422Z,37.21
2016-07-31T07:55:48.457Z,38.18
2016-07-31T07:56:48.495Z,38.28
2016-07-31T07:57:48.527Z,38.68
2016-07-31T07:58:48.570Z,38.57
2016-07-31T07:59:48.600Z,37.96
2016-07-31T08:00:48.638Z,40.88
2016-07-31T08:02:48.703Z,40.94
2016-07-31T08:03:48.742Z,41.21
2016-07-31T08:04:48.779Z,41.23
2016-07-31T08:05:48.811Z,39.96
2016-07-31T08:06:48.845Z,41.41
2016-07-31T08:07:49.175Z,41.8
2016-07-31T08:08:48.962Z,41.99
2016-07-31T08:09:48.952Z,41.77
2016-07-31T08:10:48.979Z,42.16
2016-07-31T08:11:49.017Z,42.83
2016-07-31T08:12:49.061Z,42.73
2016-07-31T08:13:49.078Z,42.24
2016-07-31T08:14:49.114Z,42.73
2016-07-31T08:15:49.152Z,43.02
2016-07-31T08:16:49.184Z,42.51
2016-07-31T08:17:49.223Z,43
2016-07-31T08:18:49.252Z,43.78
2016-07-31T08:19:50.030Z,44.07
2016-07-31T08:21:04.244Z,42.61
2016-07-31T08:21:49.354Z,43
2016-07-31T08:22:49.386Z,43.95
2016-07-31T08:23:49.427Z,45.59
2016-07-31T08:24:49.454Z,45.68
2016-07-31T08:25:49.488Z,46.59
2016-07-31T08:26:49.519Z,45.61
2016-07-31T08:27:49.559Z,43.59
2016-07-31T08:28:49.583Z,42.73
2016-07-31T08:29:49.620Z,42.46
2016-07-31T08:30:49.656Z,42.94
2016-07-31T08:31:49.686Z,41.87
2016-07-31T08:32:49.719Z,41.11
2016-07-31T08:33:49.751Z,41.21
2016-07-31T08:34:49.786Z,39.94
2016-07-31T08:35:49.823Z,41.8
2016-07-31T08:37:04.780Z,40.45
2016-07-31T08:37:49.887Z,42.01
2016-07-31T08:38:49.918Z,40.35
2016-07-31T08:39:49.955Z,40.25
2016-07-31T08:40:49.987Z,40.63
2016-07-31T08:41:50.020Z,41.48
2016-07-31T08:42:50.053Z,41.67
2016-07-31T08:43:50.093Z,42.85
2016-07-31T08:44:50.126Z,43.33
2016-07-31T08:45:50.152Z,43.55
2016-07-31T08:46:50.193Z,42.48
2016-07-31T08:47:50.219Z,41.8
2016-07-31T08:48:50.253Z,42.77
2016-07-31T08:49:50.288Z,41.8
2016-07-31T08:50:50.322Z,40.74
2016-07-31T08:51:50.358Z,40.55
2016-07-31T08:53:05.314Z,42.77
2016-07-31T08:53:50.416Z,41.6
2016-07-31T08:54:50.458Z,40.23
2016-07-31T08:55:50.490Z,40.53
2016-07-31T08:56:50.523Z,40.89
2016-07-31T08:57:50.558Z,40.89
2016-07-31T08:58:50.588Z,41.48
2016-07-31T09:00:50.656Z,41.28
2016-07-31T09:01:50.686Z,40.33
2016-07-31T09:02:50.722Z,40.53
2016-07-31T09:03:50.758Z,40.41
2016-07-31T09:04:51.489Z,39.45
2016-07-31T09:05:50.823Z,39.47
2016-07-31T09:06:50.855Z,40.45
2016-07-31T09:07:50.893Z,36.38
2016-07-31T09:09:05.850Z,37.1
2016-07-31T09:09:51.003Z,35.37
2016-07-31T09:10:50.991Z,35.11
2016-07-31T09:11:51.024Z,34.34
2016-07-31T09:12:51.057Z,34.28
2016-07-31T09:13:51.090Z,35.66
2016-07-31T09:15:51.156Z,33.34
2016-07-31T09:16:51.193Z,34.01
2016-07-31T09:17:51.225Z,34.59
2016-07-31T09:18:51.261Z,35.08
2016-07-31T09:19:51.293Z,35.66
2016-07-31T09:20:51.382Z,33.97
2016-07-31T09:21:51.368Z,34.47
2016-07-31T09:22:51.398Z,34.36
2016-07-31T09:24:06.358Z,35.13
2016-07-31T09:25:51.501Z,35.97
2016-07-31T09:26:51.536Z,35.88
2016-07-31T09:27:51.571Z,36.76
2016-07-31T09:28:51.605Z,35.16
2016-07-31T09:30:51.671Z,38.37
2016-07-31T09:31:51.705Z,38.16
2016-07-31T09:32:51.738Z,38.34
2016-07-31T09:33:51.771Z,39.41
2016-07-31T09:34:51.808Z,39.22
2016-07-31T09:35:51.837Z,39.41
2016-07-31T09:36:51.874Z,38.65
2016-07-31T09:37:51.911Z,40.29
2016-07-31T09:38:51.947Z,40.27
2016-07-31T09:40:52.008Z,39.59
2016-07-31T09:41:52.052Z,40.56
2016-07-31T09:42:52.071Z,41.64
2016-07-31T09:43:52.112Z,41.25
2016-07-31T09:44:52.144Z,40.29
2016-07-31T09:45:52.173Z,40.19
2016-07-31T09:46:52.210Z,39.29
2016-07-31T09:47:52.244Z,40.17
2016-07-31T09:48:52.273Z,40.94
2016-07-31T09:49:52.312Z,42.09
2016-07-31T09:50:52.346Z,41.87
2016-07-31T09:51:52.373Z,42.75
2016-07-31T09:52:52.408Z,42.58
2016-07-31T09:53:52.444Z,41.33
2016-07-31T09:54:52.474Z,39.96
2016-07-31T09:56:07.436Z,39.59
2016-07-31T09:57:52.580Z,38.71
2016-07-31T09:58:52.614Z,39.1
2016-07-31T09:59:52.642Z,38.42
2016-07-31T10:00:52.679Z,39.69
2016-07-31T10:01:52.713Z,39.39
2016-07-31T10:02:52.743Z,41.15
2016-07-31T10:03:52.786Z,40.64
2016-07-31T10:04:52.812Z,40.84
2016-07-31T10:05:52.847Z,39.2
2016-07-31T10:06:52.877Z,39.69
2016-07-31T10:07:52.913Z,40.17
2016-07-31T10:08:52.945Z,39.9
2016-07-31T10:09:52.979Z,40.76
2016-07-31T10:10:53.010Z,38.61
2016-07-31T10:12:08.018Z,39.1
2016-07-31T10:13:53.107Z,40.27
2016-07-31T10:14:53.145Z,41.05
2016-07-31T10:15:53.173Z,40.27
2016-07-31T10:16:53.209Z,41.05
2016-07-31T10:17:53.240Z,42.52
2016-07-31T10:18:53.964Z,40.86
2016-07-31T10:19:53.308Z,38.63
2016-07-31T10:20:53.339Z,40.39
2016-07-31T10:21:53.373Z,39.49
2016-07-31T10:22:53.403Z,39.2
2016-07-31T10:23:53.443Z,38.4
2016-07-31T10:24:53.468Z,39.57
2016-07-31T10:25:53.505Z,39.36
2016-07-31T10:26:53.543Z,38.28
2016-07-31T10:28:08.499Z,39.23
2016-07-31T10:28:53.599Z,39.51
2016-07-31T10:29:53.640Z,39.31
2016-07-31T10:30:53.667Z,40.19
2016-07-31T10:31:53.711Z,41.36
2016-07-31T10:32:53.742Z,41.36
2016-07-31T10:34:53.804Z,38.26
2016-07-31T10:35:53.838Z,40.6
2016-07-31T10:36:53.869Z,39.26
2016-07-31T10:37:53.901Z,38.77
2016-07-31T10:38:53.931Z,38.9
2016-07-31T10:41:54.040Z,36.3
2016-07-31T10:44:09.025Z,38.26
2016-07-31T10:44:54.131Z,37.18
2016-07-31T10:45:54.167Z,36.51
2016-07-31T10:46:54.200Z,35.93
2016-07-31T10:47:54.235Z,35.63
2016-07-31T10:48:54.260Z,36.22
2016-07-31T10:49:54.300Z,36.49
2016-07-31T10:50:54.328Z,36.87
2016-07-31T10:51:54.365Z,37.54
2016-07-31T10:52:54.397Z,37.35
2016-07-31T10:53:54.426Z,38.32
2016-07-31T10:54:54.463Z,38.3
2016-07-31T10:55:54.499Z,37.54
2016-07-31T10:56:54.531Z,38.69
2016-07-31T10:57:54.558Z,39.45
2016-07-31T10:59:09.532Z,39.75
2016-07-31T10:59:54.630Z,38.57
2016-07-31T11:00:54.660Z,39.33
2016-07-31T11:01:54.699Z,40.39
2016-07-31T11:02:54.730Z,40.93
2016-07-31T11:03:54.764Z,42.2
2016-07-31T11:04:54.792Z,44.03
2016-07-31T11:05:54.827Z,44.23
2016-07-31T11:06:54.865Z,42.88
2016-07-31T11:07:54.891Z,42.79
2016-07-31T11:08:54.922Z,42.49
2016-07-31T11:09:54.963Z,42.9
2016-07-31T11:10:54.995Z,41.85
2016-07-31T11:11:55.021Z,41.75
2016-07-31T11:12:55.058Z,42.54
2016-07-31T11:14:55.121Z,41.87
2016-07-31T11:15:55.155Z,41.6
2016-07-31T11:16:55.192Z,40.14
2016-07-31T11:17:55.221Z,39.76
2016-07-31T11:18:55.255Z,42.11
2016-07-31T11:19:55.594Z,39.86
2016-07-31T11:20:55.317Z,39.67
2016-07-31T11:21:55.354Z,39.67
2016-07-31T11:22:55.391Z,41.03
2016-07-31T11:23:55.418Z,40.27
2016-07-31T11:24:55.450Z,38.63
2016-07-31T11:26:55.518Z,39.76
2016-07-31T11:27:55.551Z,40.25
2016-07-31T11:28:55.584Z,40.72
2016-07-31T11:29:55.613Z,43.65
2016-07-31T11:31:10.574Z,41.5
2016-07-31T11:31:55.684Z,42.5
2016-07-31T11:32:55.718Z,42.01
2016-07-31T11:33:55.750Z,42.42
2016-07-31T11:34:55.779Z,41.83
2016-07-31T11:35:55.818Z,40.29
2016-07-31T11:36:55.843Z,40.39
2016-07-31T11:37:55.879Z,38.82
2016-07-31T11:38:55.913Z,39.78
2016-07-31T11:39:55.945Z,40.35
2016-07-31T11:40:55.976Z,40.06
2016-07-31T11:41:56.010Z,40.92
2016-07-31T11:42:56.040Z,41.5
2016-07-31T11:43:56.074Z,42.29
2016-07-31T11:45:56.146Z,40.16
2016-07-31T11:47:11.099Z,39.67
2016-07-31T11:47:56.206Z,42.01
2016-07-31T11:48:56.243Z,42.97
2016-07-31T11:49:56.275Z,40.74
2016-07-31T11:50:56.308Z,40.25
2016-07-31T11:51:56.341Z,40.64
2016-07-31T11:52:56.371Z,40.45
2016-07-31T11:53:56.403Z,41.41
2016-07-31T11:54:56.456Z,41.02
2016-07-31T11:55:56.467Z,40.45
2016-07-31T11:56:56.504Z,42.5
2016-07-31T11:57:56.537Z,42.69
2016-07-31T12:00:56.631Z,39.28
2016-07-31T12:01:56.667Z,40.66
2016-07-31T12:03:11.624Z,40.16
2016-07-31T12:03:56.732Z,39.57
2016-07-31T12:04:56.764Z,39.28
2016-07-31T12:05:56.796Z,39.28
2016-07-31T12:06:56.825Z,39.08
2016-07-31T12:07:56.862Z,40.25
2016-07-31T12:08:56.896Z,41.02
2016-07-31T12:09:56.930Z,42.58
2016-07-31T12:10:56.960Z,41.8
2016-07-31T12:11:56.993Z,39.28
2016-07-31T12:12:57.026Z,39.94
2016-07-31T12:13:57.057Z,39.65
2016-07-31T12:14:57.090Z,41.6
2016-07-31T12:15:57.124Z,40.89
2016-07-31T12:16:57.157Z,42.36
2016-07-31T12:17:57.186Z,41.97
2016-07-31T12:19:12.146Z,41.19
2016-07-31T12:19:57.257Z,41.28
2016-07-31T12:20:57.287Z,40.7
2016-07-31T12:21:57.317Z,41.07
2016-07-31T12:22:57.349Z,43.29
2016-07-31T12:23:57.381Z,42.41
2016-07-31T12:24:57.419Z,41.25
2016-07-31T12:25:57.445Z,42.8
2016-07-31T12:26:57.485Z,42.98
2016-07-31T12:27:57.511Z,43.47
2016-07-31T12:28:57.592Z,44.05
2016-07-31T12:29:57.629Z,41.73
2016-07-31T12:30:57.608Z,41.15
2016-07-31T12:31:57.656Z,41.56
2016-07-31T12:32:57.680Z,42.41
2016-07-31T12:34:12.633Z,44.34
2016-07-31T12:34:57.745Z,45.73
2016-07-31T12:35:58.474Z,45.34
2016-07-31T12:36:57.802Z,42.26
2016-07-31T12:37:57.836Z,40.21
2016-07-31T12:38:57.869Z,40.5
2016-07-31T12:39:57.903Z,42.65
2016-07-31T12:40:57.933Z,41.41
2016-07-31T12:41:57.969Z,42.19
2016-07-31T12:42:58.004Z,41.02
2016-07-31T12:43:58.033Z,41.91
2016-07-31T12:44:58.067Z,40.56
2016-07-31T12:45:58.096Z,38.32
2016-07-31T12:46:58.127Z,37.43
2016-07-31T12:47:58.162Z,38.18
2016-07-31T12:48:58.192Z,38.77
2016-07-31T12:49:58.226Z,39.45
2016-07-31T12:50:58.260Z,39.94
2016-07-31T12:51:58.288Z,40.6
2016-07-31T12:52:58.323Z,39.36
2016-07-31T12:53:58.353Z,40.23
2016-07-31T12:54:58.390Z,40.21
2016-07-31T12:55:58.425Z,39.94
2016-07-31T12:56:58.457Z,40.33
2016-07-31T12:57:58.485Z,38.4
2016-07-31T12:58:58.516Z,38.3
2016-07-31T12:59:58.705Z,39.94
2016-07-31T13:00:59.415Z,39.37
2016-07-31T13:01:58.618Z,38.89
2016-07-31T13:03:58.683Z,37.71
2016-07-31T13:04:58.717Z,38.69
2016-07-31T13:06:13.683Z,38.2
2016-07-31T13:06:58.784Z,38.3
2016-07-31T13:07:58.816Z,39.49
2016-07-31T13:08:58.848Z,38.98
2016-07-31T13:09:58.878Z,39.08
2016-07-31T13:10:58.914Z,39.55
2016-07-31T13:11:58.945Z,38.4
2016-07-31T13:12:58.977Z,38.96
2016-07-31T13:13:59.005Z,38.77
2016-07-31T13:14:59.041Z,38.1
2016-07-31T13:16:59.102Z,39.45
2016-07-31T13:17:59.138Z,38.77
2016-07-31T13:18:59.186Z,38.59
2016-07-31T13:20:59.231Z,37.81
2016-07-31T13:22:14.194Z,39.18
2016-07-31T13:22:59.299Z,39.47
2016-07-31T13:23:59.331Z,38.69
2016-07-31T13:24:59.366Z,37.32
2016-07-31T13:25:59.398Z,37.52
2016-07-31T13:26:59.433Z,37.63
2016-07-31T13:27:59.463Z,38.22
2016-07-31T13:28:59.496Z,38.42
2016-07-31T13:29:59.581Z,36.36
2016-07-31T13:30:59.559Z,36.93
2016-07-31T13:31:59.596Z,39.37
2016-07-31T13:32:59.636Z,38.57
2016-07-31T13:33:59.655Z,39.37
2016-07-31T13:34:59.691Z,39.28
2016-07-31T13:35:59.725Z,38.98
2016-07-31T13:36:59.752Z,38.3
2016-07-31T13:38:14.712Z,39.86
2016-07-31T13:38:59.823Z,38.3
2016-07-31T13:39:59.853Z,38.49